Time;durP1;ratioP1;P1;durP2;ratioP2;P2;SDS_P1;SDS_P2;PMS_P1;PMS_P2;Temp;Humidity;BMP_temperature;BMP_pressure;BME280_temperature;BME280_humidity;BME280_pressure;Samples;Min_cycle;Max_cycle;Signal;HPM_P1;HPM_P2
2023/01/23 00:02:18;;;;;;;29.75;15.88;;;-2.50;99.90;;;;;;5006575;28;20042;-67
2023/01/23 00:04:44;;;;;;;31.70;16.35;;;-2.50;99.90;;;;;;5008464;28;20061;-68
2023/01/23 00:07:11;;;;;;;32.35;14.32;;;-2.40;99.90;;;;;;5007338;28;20045;-68
2023/01/23 00:09:38;;;;;;;28.05;14.07;;;-2.40;99.90;;;;;;4998745;28;20477;-69
2023/01/23 00:12:05;;;;;;;24.98;13.68;;;-2.40;99.90;;;;;;5008463;28;20077;-67
2023/01/23 00:14:32;;;;;;;26.33;13.93;;;-2.40;99.90;;;;;;5009738;28;20042;-68
2023/01/23 00:16:58;;;;;;;28.15;14.07;;;-2.50;99.90;;;;;;5009866;28;20034;-68
2023/01/23 00:19:25;;;;;;;32.15;13.48;;;-2.50;99.90;;;;;;5000961;28;20041;-67
2023/01/23 00:21:52;;;;;;;27.92;14.25;;;-2.60;99.90;;;;;;5011967;28;20049;-69
2023/01/23 00:24:18;;;;;;;28.10;13.85;;;-2.50;99.90;;;;;;4999636;28;20158;-69
2023/01/23 00:26:45;;;;;;;32.13;15.98;;;-2.50;99.90;;;;;;5012277;28;20045;-69
2023/01/23 00:29:14;;;;;;;27.90;15.25;;;-2.50;99.90;;;;;;5007935;28;20060;-68
2023/01/23 00:31:41;;;;;;;37.35;15.02;;;-2.50;99.90;;;;;;5010943;28;20164;-69
2023/01/23 00:34:10;;;;;;;28.20;15.00;;;-2.50;99.90;;;;;;4999930;28;20042;-69
2023/01/23 00:36:39;;;;;;;34.95;14.82;;;-2.50;99.90;;;;;;5007838;28;20050;-69
2023/01/23 00:39:08;;;;;;;28.65;13.75;;;-2.50;99.90;;;;;;5000716;28;20053;-68
2023/01/23 00:41:34;;;;;;;22.73;12.70;;;-2.50;99.90;;;;;;5005200;28;20042;-67
2023/01/23 00:44:01;;;;;;;24.88;13.40;;;-2.60;99.90;;;;;;5003554;28;20476;-69
2023/01/23 00:46:28;;;;;;;29.05;13.57;;;-2.60;99.90;;;;;;5003935;28;20048;-68
2023/01/23 00:48:55;;;;;;;35.85;17.08;;;-2.60;99.90;;;;;;5005731;28;20047;-68
2023/01/23 00:51:22;;;;;;;30.67;15.77;;;-2.70;99.90;;;;;;5000255;28;20066;-69
2023/01/23 00:53:49;;;;;;;31.98;16.48;;;-2.70;99.90;;;;;;5007474;28;20052;-67
2023/01/23 00:56:15;;;;;;;32.33;17.02;;;-2.70;99.90;;;;;;5021893;28;20056;-69
2023/01/23 00:58:42;;;;;;;31.80;16.45;;;-2.70;99.90;;;;;;5007710;28;20084;-69
2023/01/23 01:01:11;;;;;;;41.97;18.77;;;-2.70;99.90;;;;;;4998226;28;20050;-68
2023/01/23 01:03:37;;;;;;;34.78;17.13;;;-2.80;99.90;;;;;;5008120;28;20046;-68
2023/01/23 01:06:04;;;;;;;34.38;16.10;;;-2.80;99.90;;;;;;4997513;28;20077;-68
2023/01/23 01:08:31;;;;;;;36.63;17.40;;;-2.80;99.90;;;;;;5009139;28;20049;-68
2023/01/23 01:10:58;;;;;;;38.03;18.48;;;-2.80;99.90;;;;;;5004576;28;20132;-68
2023/01/23 01:13:25;;;;;;;37.38;16.90;;;-2.70;99.90;;;;;;5010958;28;20045;-68
2023/01/23 01:15:51;;;;;;;33.75;17.70;;;-2.80;99.90;;;;;;5000482;28;20047;-68
2023/01/23 01:18:18;;;;;;;37.08;16.85;;;-2.80;99.90;;;;;;4997850;28;20047;-68
2023/01/23 01:20:45;;;;;;;34.72;17.75;;;-2.80;99.90;;;;;;5002258;28;20050;-68
2023/01/23 01:23:12;;;;;;;33.53;17.23;;;-2.80;99.90;;;;;;5016065;28;20064;-67
2023/01/23 01:25:39;;;;;;;40.35;16.67;;;-2.80;99.90;;;;;;5007692;28;20553;-68
2023/01/23 01:28:06;;;;;;;33.08;16.05;;;-2.90;99.90;;;;;;5010589;28;20050;-67
2023/01/23 01:30:32;;;;;;;40.17;17.45;;;-2.90;99.90;;;;;;5009015;28;20050;-67
2023/01/23 01:32:59;;;;;;;38.67;16.67;;;-2.90;99.90;;;;;;5008870;28;20049;-67
2023/01/23 01:35:26;;;;;;;35.55;16.73;;;-2.90;99.90;;;;;;5013540;28;20041;-67
2023/01/23 01:37:52;;;;;;;35.78;17.00;;;-2.80;99.90;;;;;;5004658;28;20076;-68
2023/01/23 01:40:21;;;;;;;35.40;15.05;;;-2.90;99.90;;;;;;5024819;28;20046;-67
2023/01/23 01:42:57;;;;;;;30.65;14.98;;;-3.00;99.90;;;;;;5003627;28;20556;-69
2023/01/23 01:46:01;;;;;;;38.60;16.38;;;-3.00;99.90;;;;;;5013300;28;20042;-66
2023/01/23 01:49:03;;;;;;;30.38;14.73;;;-3.00;99.90;;;;;;5007581;28;20497;-68
2023/01/23 01:51:57;;;;;;;32.78;15.52;;;-2.90;99.90;;;;;;5004549;28;20136;-67
2023/01/23 01:54:53;;;;;;;35.85;12.98;;;-3.00;99.90;;;;;;5003020;28;20069;-67
2023/01/23 01:57:25;;;;;;;29.48;12.60;;;-3.00;99.90;;;;;;5007685;28;20058;-67
2023/01/23 01:59:56;;;;;;;29.73;12.63;;;-3.00;99.90;;;;;;5013735;28;20068;-66
2023/01/23 02:02:26;;;;;;;22.40;10.07;;;-3.00;99.90;;;;;;5009833;28;20077;-67
2023/01/23 02:05:04;;;;;;;20.25;10.98;;;-3.00;99.90;;;;;;5014739;28;20046;-68
2023/01/23 02:07:38;;;;;;;20.88;9.48;;;-3.10;99.90;;;;;;4985582;28;20549;-68
2023/01/23 02:10:06;;;;;;;18.23;9.05;;;-3.10;99.90;;;;;;5006582;28;20041;-67
2023/01/23 02:12:34;;;;;;;20.85;10.65;;;-3.10;99.90;;;;;;5005004;28;20084;-68
2023/01/23 02:15:01;;;;;;;19.65;9.57;;;-3.10;99.90;;;;;;5005894;28;20081;-68
2023/01/23 02:17:29;;;;;;;19.85;9.32;;;-3.00;99.90;;;;;;5013027;28;20070;-69
2023/01/23 02:20:13;;;;;;;19.02;9.13;;;-3.00;99.90;;;;;;5026458;28;20049;-68
2023/01/23 02:22:46;;;;;;;18.10;9.77;;;-3.10;99.90;;;;;;5007623;28;20088;-69
2023/01/23 02:25:24;;;;;;;26.70;12.53;;;-3.10;99.90;;;;;;5012903;28;20404;-68
2023/01/23 02:27:51;;;;;;;28.58;12.07;;;-3.10;99.90;;;;;;5001880;28;20054;-69
2023/01/23 02:30:19;;;;;;;25.10;12.70;;;-3.20;99.90;;;;;;5007962;28;20054;-69
2023/01/23 02:32:46;;;;;;;26.27;13.70;;;-3.20;99.90;;;;;;5004202;28;20050;-70
2023/01/23 02:35:31;;;;;;;33.78;13.30;;;-3.10;99.90;;;;;;5005969;28;20532;-69
2023/01/23 02:37:59;;;;;;;28.67;14.50;;;-3.10;99.90;;;;;;5002918;28;20056;-68
2023/01/23 02:40:35;;;;;;;31.75;15.00;;;-3.10;99.90;;;;;;4988989;28;20046;-67
2023/01/23 02:43:06;;;;;;;30.13;14.70;;;-3.10;99.90;;;;;;5006343;28;20208;-68
2023/01/23 02:45:33;;;;;;;29.25;12.98;;;-3.10;99.90;;;;;;4994023;28;20042;-68
2023/01/23 02:48:00;;;;;;;32.78;14.07;;;-3.10;99.90;;;;;;5005944;28;20046;-69
2023/01/23 02:50:27;;;;;;;33.35;14.70;;;-3.10;99.90;;;;;;5003517;28;20412;-68
2023/01/23 02:52:56;;;;;;;30.35;14.07;;;-3.10;99.90;;;;;;5008887;28;20052;-68
2023/01/23 02:55:25;;;;;;;27.95;15.65;;;-3.10;99.90;;;;;;5001290;28;20513;-68
2023/01/23 02:57:52;;;;;;;32.25;15.43;;;-3.10;99.90;;;;;;5008595;28;20132;-68
2023/01/23 03:00:19;;;;;;;29.90;13.02;;;-3.10;99.90;;;;;;5002934;28;20042;-68
2023/01/23 03:02:47;;;;;;;33.72;15.88;;;-3.10;99.90;;;;;;4992508;28;20076;-69
2023/01/23 03:05:14;;;;;;;30.75;15.45;;;-3.20;99.90;;;;;;5007703;28;20096;-69
2023/01/23 03:07:41;;;;;;;30.30;15.55;;;-3.20;99.90;;;;;;5010409;28;20075;-69
2023/01/23 03:10:09;;;;;;;30.98;14.50;;;-3.30;99.90;;;;;;4998431;28;20129;-69
2023/01/23 03:12:42;;;;;;;29.98;15.95;;;-3.30;99.90;;;;;;5009438;28;20050;-69
2023/01/23 03:15:09;;;;;;;32.40;16.95;;;-3.20;99.90;;;;;;4997884;28;20430;-69
2023/01/23 03:17:36;;;;;;;36.13;16.30;;;-3.20;99.90;;;;;;5010258;28;20042;-68
2023/01/23 03:20:04;;;;;;;34.58;16.50;;;-3.30;99.90;;;;;;4998000;28;20045;-69
2023/01/23 03:22:31;;;;;;;32.00;14.13;;;-3.30;99.90;;;;;;5008515;28;20053;-69
2023/01/23 03:24:58;;;;;;;29.52;14.73;;;-3.30;99.90;;;;;;4999300;28;20049;-69
2023/01/23 03:27:24;;;;;;;30.83;13.43;;;-3.20;99.90;;;;;;5008229;28;20042;-69
2023/01/23 03:32:37;;;;;;;25.05;13.70;;;-3.20;99.90;;;;;;5008872;28;20082;-69
2023/01/23 03:35:05;;;;;;;25.70;13.20;;;-3.10;99.90;;;;;;5001178;28;20120;-68
2023/01/23 03:37:32;;;;;;;24.33;11.73;;;-3.20;99.90;;;;;;5009077;28;20050;-68
2023/01/23 03:42:45;;;;;;;19.10;9.73;;;-3.20;99.90;;;;;;5007279;28;20042;-68
2023/01/23 03:45:11;;;;;;;19.40;10.13;;;-3.20;99.90;;;;;;5003199;28;20054;-69
2023/01/23 03:47:38;;;;;;;12.80;8.25;;;-3.20;99.90;;;;;;5004262;28;20049;-68
2023/01/23 03:50:06;;;;;;;14.80;6.97;;;-3.20;99.90;;;;;;5005399;28;20121;-69
2023/01/23 03:52:33;;;;;;;13.68;8.13;;;-3.20;99.90;;;;;;5020367;28;20050;-69
2023/01/23 03:55:00;;;;;;;18.33;7.70;;;-3.20;99.90;;;;;;5008189;28;20042;-68
2023/01/23 03:57:27;;;;;;;11.73;6.10;;;-3.20;99.90;;;;;;5009737;28;20042;-69
2023/01/23 03:59:54;;;;;;;13.60;6.88;;;-3.30;99.90;;;;;;5007821;28;20052;-69
2023/01/23 04:02:20;;;;;;;16.42;7.22;;;-3.30;99.90;;;;;;4998828;28;20042;-69
2023/01/23 04:04:47;;;;;;;16.50;6.50;;;-3.20;99.90;;;;;;5006677;28;20414;-68
2023/01/23 04:07:14;;;;;;;14.35;6.47;;;-3.20;99.90;;;;;;5005692;28;20038;-67
2023/01/23 04:09:40;;;;;;;15.95;7.25;;;-3.20;99.90;;;;;;5009258;28;20054;-68
2023/01/23 04:12:07;;;;;;;15.68;6.68;;;-3.30;99.90;;;;;;5004714;28;20276;-68
2023/01/23 04:14:36;;;;;;;16.10;7.28;;;-3.30;99.90;;;;;;5009578;28;20519;-68
2023/01/23 04:17:04;;;;;;;18.05;7.63;;;-2.90;99.90;;;;;;5008336;28;20046;-69
2023/01/23 04:19:31;;;;;;;11.70;5.80;;;-3.30;99.90;;;;;;5007729;28;20046;-69
2023/01/23 04:21:57;;;;;;;14.60;7.75;;;-3.20;99.90;;;;;;5007591;28;20089;-68
2023/01/23 04:24:24;;;;;;;17.30;7.43;;;-3.20;99.90;;;;;;5008911;28;20042;-69
2023/01/23 04:26:51;;;;;;;13.77;7.05;;;-3.20;99.90;;;;;;5007107;28;20056;-69
2023/01/23 04:29:18;;;;;;;13.98;6.80;;;-3.30;99.90;;;;;;5008968;28;20501;-68
2023/01/23 04:31:45;;;;;;;12.40;6.82;;;-3.20;99.90;;;;;;5002087;28;20523;-69
2023/01/23 04:34:12;;;;;;;18.30;7.88;;;-3.30;99.90;;;;;;5004088;28;20104;-68
2023/01/23 04:36:38;;;;;;;14.43;7.30;;;-3.20;99.90;;;;;;5004178;28;20046;-68
2023/01/23 04:39:05;;;;;;;12.70;6.65;;;-3.20;99.90;;;;;;5001196;28;20046;-68
2023/01/23 04:41:32;;;;;;;15.45;8.27;;;-3.20;99.90;;;;;;5007473;28;20042;-69
2023/01/23 04:44:18;;;;;;;13.27;6.63;;;-3.20;99.90;;;;;;4999226;28;20054;-69
2023/01/23 04:46:49;;;;;;;12.65;6.82;;;-3.20;99.90;;;;;;4997627;28;20555;-68
2023/01/23 04:49:17;;;;;;;13.20;7.07;;;-3.20;99.90;;;;;;5008609;28;20056;-68
2023/01/23 04:51:46;;;;;;;14.93;7.05;;;-3.20;99.90;;;;;;5006620;28;20045;-66
2023/01/23 04:54:13;;;;;;;15.48;6.75;;;-3.20;99.90;;;;;;5009339;28;20508;-67
2023/01/23 04:56:40;;;;;;;17.90;7.28;;;-3.20;99.90;;;;;;5005896;28;20077;-67
2023/01/23 04:59:07;;;;;;;17.15;7.72;;;-3.20;99.90;;;;;;5002788;28;20046;-67
2023/01/23 05:01:34;;;;;;;10.60;6.65;;;-3.10;99.90;;;;;;5007710;28;20049;-67
2023/01/23 05:04:00;;;;;;;14.20;7.07;;;-3.10;99.90;;;;;;5005649;28;20394;-67
2023/01/23 05:06:27;;;;;;;17.90;7.00;;;-3.10;99.90;;;;;;5009422;28;20050;-67
2023/01/23 05:08:54;;;;;;;12.63;7.20;;;-3.10;99.90;;;;;;5006180;28;20133;-69
2023/01/23 05:11:21;;;;;;;14.52;8.00;;;-2.50;99.90;;;;;;5008454;28;20045;-67
2023/01/23 05:13:47;;;;;;;19.30;7.97;;;-3.20;99.90;;;;;;4996172;28;20568;-68
2023/01/23 05:16:14;;;;;;;13.85;7.32;;;-3.20;99.90;;;;;;4989344;28;20152;-67
2023/01/23 05:18:41;;;;;;;12.48;6.57;;;-3.20;99.90;;;;;;5001810;28;20046;-67
2023/01/23 05:21:08;;;;;;;18.98;8.15;;;-3.20;99.90;;;;;;5008464;28;20128;-67
2023/01/23 05:23:34;;;;;;;13.05;6.55;;;-3.20;99.90;;;;;;5000903;28;20047;-68
2023/01/23 05:26:01;;;;;;;15.95;6.25;;;-3.20;99.90;;;;;;5004327;28;20046;-67
2023/01/23 05:28:28;;;;;;;11.23;6.68;;;-3.30;99.90;;;;;;5006656;28;20042;-67
2023/01/23 05:30:55;;;;;;;12.63;6.90;;;-3.30;99.90;;;;;;5008164;28;20520;-69
2023/01/23 05:33:22;;;;;;;11.90;6.55;;;-3.30;99.90;;;;;;5006637;28;20640;-67
2023/01/23 05:35:49;;;;;;;13.25;7.30;;;-3.30;99.90;;;;;;4998416;28;20047;-68
2023/01/23 05:38:16;;;;;;;13.98;7.43;;;-3.30;99.90;;;;;;4989849;28;20059;-67
2023/01/23 05:40:42;;;;;;;18.05;7.07;;;-3.20;99.90;;;;;;5008911;28;20046;-68
2023/01/23 05:43:13;;;;;;;13.60;6.88;;;-3.20;99.90;;;;;;5006692;28;20084;-67
2023/01/23 05:45:40;;;;;;;15.40;6.22;;;-3.20;99.90;;;;;;4997892;28;20050;-68
2023/01/23 05:48:06;;;;;;;15.82;6.50;;;-3.20;99.90;;;;;;5007812;28;20049;-68
2023/01/23 05:50:33;;;;;;;10.50;6.03;;;-3.30;99.90;;;;;;4997200;28;20546;-67
2023/01/23 05:53:00;;;;;;;18.60;5.78;;;-3.30;99.90;;;;;;5011126;28;20052;-67
2023/01/23 05:55:27;;;;;;;12.93;6.18;;;-3.30;99.90;;;;;;5008846;28;20133;-67
2023/01/23 05:57:53;;;;;;;7.80;5.32;;;-3.10;99.90;;;;;;5010946;28;20046;-67
2023/01/23 06:00:20;;;;;;;10.27;5.70;;;-3.30;99.90;;;;;;5006253;28;20052;-67
2023/01/23 06:02:47;;;;;;;11.15;5.18;;;-3.30;99.90;;;;;;5011462;28;20054;-66
2023/01/23 06:05:14;;;;;;;10.98;6.32;;;-3.30;99.90;;;;;;5007674;28;20037;-67
2023/01/23 06:07:41;;;;;;;9.52;5.03;;;-3.30;99.90;;;;;;5011801;28;20042;-68
2023/01/23 06:10:09;;;;;;;15.80;6.00;;;-3.20;99.90;;;;;;5003719;28;20429;-68
2023/01/23 06:12:35;;;;;;;10.68;5.30;;;-3.30;99.90;;;;;;5007353;28;20129;-69
2023/01/23 06:15:03;;;;;;;13.52;6.55;;;-3.30;99.90;;;;;;5005719;28;20042;-69
2023/01/23 06:17:29;;;;;;;13.95;6.75;;;-3.30;99.90;;;;;;5004890;28;20564;-69
2023/01/23 06:19:57;;;;;;;11.32;6.45;;;-3.30;99.90;;;;;;5007769;28;20093;-69
2023/01/23 06:22:24;;;;;;;12.82;6.45;;;-3.40;99.90;;;;;;5009475;28;20124;-69
2023/01/23 06:24:51;;;;;;;14.98;7.75;;;-3.40;99.90;;;;;;5009823;28;20052;-69
2023/01/23 06:27:18;;;;;;;15.77;7.55;;;-3.30;99.90;;;;;;5000642;28;20123;-69
2023/01/23 06:29:45;;;;;;;15.20;7.80;;;-3.30;99.90;;;;;;5009793;28;20053;-68
2023/01/23 06:32:11;;;;;;;18.27;8.65;;;-3.30;99.90;;;;;;5009803;28;20326;-67
2023/01/23 06:34:38;;;;;;;19.20;8.95;;;-3.30;99.90;;;;;;5010158;28;20054;-68
2023/01/23 06:37:05;;;;;;;19.25;9.45;;;-3.30;99.90;;;;;;5002921;28;20453;-67
2023/01/23 06:39:33;;;;;;;18.67;9.73;;;-3.30;99.90;;;;;;5007294;28;20141;-66
2023/01/23 06:41:59;;;;;;;19.20;8.95;;;-3.30;99.90;;;;;;5005411;28;20517;-67
2023/01/23 06:44:26;;;;;;;13.63;8.07;;;-3.30;99.90;;;;;;5010985;28;20120;-68
2023/01/23 06:46:53;;;;;;;17.52;9.27;;;-3.30;99.90;;;;;;4998650;28;20568;-70
2023/01/23 06:49:20;;;;;;;18.23;10.00;;;-3.20;99.90;;;;;;4997978;28;20053;-67
2023/01/23 06:51:46;;;;;;;21.60;11.05;;;-3.20;99.90;;;;;;5009236;28;20080;-69
2023/01/23 06:54:13;;;;;;;24.80;11.50;;;-3.30;99.90;;;;;;5025570;28;20050;-69
2023/01/23 06:56:40;;;;;;;20.13;11.77;;;-3.30;99.90;;;;;;4662272;28;9999769;-69
2023/01/23 06:59:07;;;;;;;25.98;13.50;;;-3.30;99.90;;;;;;5008410;28;20471;-67
2023/01/23 07:01:33;;;;;;;23.40;12.63;;;-3.30;99.90;;;;;;5006563;28;20497;-68
2023/01/23 07:04:00;;;;;;;24.15;12.48;;;-3.30;99.90;;;;;;5008408;28;20085;-67
2023/01/23 07:06:28;;;;;;;22.73;10.80;;;-3.30;99.90;;;;;;5005243;28;20056;-67
2023/01/23 07:08:55;;;;;;;26.25;12.10;;;-3.30;99.90;;;;;;5004567;28;20093;-68
2023/01/23 07:11:23;;;;;;;26.27;12.90;;;-3.40;99.90;;;;;;5006814;28;20048;-68
2023/01/23 07:13:49;;;;;;;23.52;12.65;;;-3.40;99.90;;;;;;4996798;28;20144;-68
2023/01/23 07:16:16;;;;;;;22.50;11.75;;;-3.30;99.90;;;;;;5005688;28;20140;-69
2023/01/23 07:18:43;;;;;;;20.80;11.50;;;-3.30;99.90;;;;;;5004557;28;20085;-68
2023/01/23 07:21:10;;;;;;;31.02;14.05;;;-3.30;99.90;;;;;;5006221;28;20050;-68
2023/01/23 07:23:36;;;;;;;19.83;12.18;;;-3.30;99.90;;;;;;5004968;28;20413;-68
2023/01/23 07:26:08;;;;;;;26.27;12.00;;;-3.30;99.90;;;;;;5007999;28;20049;-69
2023/01/23 07:28:36;;;;;;;27.17;12.38;;;-3.30;99.90;;;;;;5004036;28;20111;-68
2023/01/23 07:31:02;;;;;;;23.60;13.75;;;-3.40;99.90;;;;;;5005498;28;20517;-68
2023/01/23 07:33:29;;;;;;;25.35;13.40;;;-3.40;99.90;;;;;;4994590;28;20089;-68
2023/01/23 07:35:56;;;;;;;21.50;11.35;;;-3.40;99.90;;;;;;5005318;28;20080;-68
2023/01/23 07:38:24;;;;;;;28.73;12.15;;;-3.40;99.90;;;;;;4996453;28;20053;-66
2023/01/23 07:40:51;;;;;;;26.20;11.93;;;-3.40;99.90;;;;;;5006641;28;20380;-69
2023/01/23 07:43:18;;;;;;;25.23;11.93;;;-3.40;99.90;;;;;;5000362;28;20108;-70
2023/01/23 07:45:45;;;;;;;20.38;11.45;;;-3.40;99.90;;;;;;5006480;28;20635;-71
2023/01/23 07:48:11;;;;;;;27.20;11.13;;;-3.40;99.90;;;;;;5004201;28;20050;-70
2023/01/23 07:50:38;;;;;;;26.73;12.15;;;-3.30;99.90;;;;;;5004262;28;20857;-70
2023/01/23 07:53:06;;;;;;;26.40;11.80;;;-3.30;99.90;;;;;;4999789;28;20050;-70
2023/01/23 07:55:33;;;;;;;23.20;10.93;;;-3.30;99.90;;;;;;5004915;28;20125;-68
2023/01/23 07:57:59;;;;;;;28.85;11.65;;;-3.40;99.90;;;;;;5000087;28;20512;-68
2023/01/23 08:00:26;;;;;;;21.35;11.23;;;-3.30;99.90;;;;;;5020669;28;20054;-68
2023/01/23 08:02:55;;;;;;;22.65;11.35;;;-3.30;99.90;;;;;;5005327;28;20120;-68
2023/01/23 08:05:22;;;;;;;20.70;10.77;;;-3.30;99.90;;;;;;5014272;28;20137;-68
2023/01/23 08:07:49;;;;;;;20.08;10.85;;;-3.40;99.90;;;;;;5007333;28;20469;-70
2023/01/23 08:10:23;;;;;;;18.70;9.50;;;-3.30;99.90;;;;;;5003312;28;20412;-69
2023/01/23 08:12:50;;;;;;;19.73;10.18;;;-3.40;99.90;;;;;;4990033;28;20046;-68
2023/01/23 08:15:16;;;;;;;21.25;10.55;;;-3.40;99.90;;;;;;5006631;28;20413;-69
2023/01/23 08:17:43;;;;;;;24.58;9.63;;;-3.30;99.90;;;;;;5006851;28;20045;-69
2023/01/23 08:20:10;;;;;;;18.88;9.85;;;-3.30;99.90;;;;;;5005666;28;20080;-77
2023/01/23 08:22:39;;;;;;;25.33;10.48;;;-3.30;99.90;;;;;;5007645;28;20042;-68
2023/01/23 08:25:08;;;;;;;26.33;10.05;;;-3.20;99.90;;;;;;5004339;28;20440;-68
2023/01/23 08:27:35;;;;;;;22.55;10.15;;;-3.20;99.90;;;;;;5006515;28;20114;-69
2023/01/23 08:30:04;;;;;;;20.30;10.35;;;-3.20;99.90;;;;;;5004302;28;20123;-69
2023/01/23 08:32:30;;;;;;;21.23;10.80;;;-3.20;99.90;;;;;;5005757;28;20085;-69
2023/01/23 08:34:58;;;;;;;23.73;10.02;;;-3.20;99.90;;;;;;5001727;28;20060;-69
2023/01/23 08:37:25;;;;;;;21.88;9.60;;;-3.20;99.90;;;;;;5005829;28;20054;-69
2023/01/23 08:39:51;;;;;;;20.92;9.45;;;-3.20;99.90;;;;;;5000535;28;20121;-68
2023/01/23 08:42:18;;;;;;;21.65;10.93;;;-3.20;99.90;;;;;;5004953;28;20399;-69
2023/01/23 08:44:45;;;;;;;23.33;10.93;;;-3.20;99.90;;;;;;4999809;28;20105;-68
2023/01/23 08:47:12;;;;;;;28.40;11.23;;;-3.10;99.90;;;;;;4993898;28;20062;-69
2023/01/23 08:49:38;;;;;;;25.95;11.88;;;-3.10;99.90;;;;;;4988526;28;20038;-68
2023/01/23 08:52:05;;;;;;;26.65;11.73;;;-3.10;99.90;;;;;;5003410;28;20547;-70
2023/01/23 08:54:32;;;;;;;24.73;11.13;;;-3.00;99.90;;;;;;4997467;28;20057;-68
2023/01/23 08:56:58;;;;;;;21.02;11.10;;;-2.80;99.90;;;;;;5004320;28;20308;-69
2023/01/23 08:59:25;;;;;;;22.13;11.48;;;-2.90;99.90;;;;;;5003999;28;20145;-69
2023/01/23 09:01:52;;;;;;;31.30;11.30;;;-2.80;99.90;;;;;;5005175;28;20466;-67
2023/01/23 09:04:19;;;;;;;25.65;12.38;;;-2.50;99.90;;;;;;5006591;28;20498;-69
2023/01/23 09:06:46;;;;;;;21.98;11.70;;;-2.70;99.90;;;;;;5002021;28;20156;-67
2023/01/23 09:09:12;;;;;;;21.08;10.95;;;-2.70;99.90;;;;;;5007109;28;20046;-67
2023/01/23 09:11:39;;;;;;;23.02;12.68;;;-2.60;99.90;;;;;;5005365;28;20120;-67
2023/01/23 09:14:06;;;;;;;21.45;12.50;;;-2.60;99.90;;;;;;5006411;28;20065;-67
2023/01/23 09:16:33;;;;;;;28.98;12.55;;;-2.50;99.90;;;;;;4993991;28;20117;-68
2023/01/23 09:19:00;;;;;;;27.88;13.48;;;-2.40;99.90;;;;;;5005105;28;20061;-68
2023/01/23 09:21:26;;;;;;;29.50;12.75;;;-2.80;99.90;;;;;;4997620;28;20543;-68
2023/01/23 09:23:53;;;;;;;29.23;13.55;;;-2.30;99.90;;;;;;4998241;28;20054;-68
2023/01/23 09:26:20;;;;;;;26.27;13.23;;;-2.20;99.90;;;;;;5001084;28;20501;-67
2023/01/23 09:28:47;;;;;;;30.65;14.48;;;-2.10;99.90;;;;;;5005926;28;20052;-69
2023/01/23 09:31:13;;;;;;;26.52;12.82;;;-2.00;99.90;;;;;;5002639;28;20151;-67
2023/01/23 09:33:40;;;;;;;25.80;13.52;;;-2.00;99.90;;;;;;4978985;28;20077;-68
2023/01/23 09:36:07;;;;;;;26.77;12.30;;;-1.70;99.90;;;;;;5003676;28;20042;-68
2023/01/23 09:38:34;;;;;;;29.25;15.05;;;-1.80;99.90;;;;;;4996683;28;20125;-68
2023/01/23 09:41:08;;;;;;;24.52;12.07;;;-1.70;99.90;;;;;;5008094;28;20520;-68
2023/01/23 09:43:42;;;;;;;30.50;13.10;;;-1.60;99.90;;;;;;4971456;28;20062;-68
2023/01/23 09:46:09;;;;;;;32.13;13.82;;;-1.60;99.90;;;;;;4974811;28;20077;-69
2023/01/23 09:48:46;;;;;;;30.33;14.73;;;-1.20;99.90;;;;;;5014232;28;20602;-68
2023/01/23 09:51:32;;;;;;;29.30;15.05;;;-1.40;99.90;;;;;;5027645;28;20088;-67
2023/01/23 09:54:07;;;;;;;22.92;13.15;;;-1.30;99.90;;;;;;4985575;28;20052;-68
2023/01/23 09:56:42;;;;;;;27.15;14.20;;;-1.30;99.90;;;;;;4979189;28;20041;-68
2023/01/23 09:59:37;;;;;;;26.17;13.10;;;-1.20;99.90;;;;;;5027837;28;20072;-70
2023/01/23 10:02:20;;;;;;;33.53;14.65;;;-1.10;99.90;;;;;;5009262;28;20049;-67
2023/01/23 10:04:48;;;;;;;26.83;13.32;;;-1.00;99.90;;;;;;5026284;28;20083;-69
2023/01/23 10:07:18;;;;;;;28.88;16.20;;;-0.90;99.90;;;;;;5024676;28;20163;-68
2023/01/23 10:10:14;;;;;;;30.45;14.73;;;-0.10;99.90;;;;;;5026704;28;20354;-68
2023/01/23 10:12:55;;;;;;;26.08;12.85;;;-0.80;99.90;;;;;;4971389;28;20060;-67
2023/01/23 10:15:56;;;;;;;28.08;14.40;;;-0.70;99.90;;;;;;5007959;28;20457;-69
2023/01/23 10:18:34;;;;;;;26.75;13.63;;;-0.60;99.90;;;;;;5003766;28;20045;-68
2023/01/23 10:21:19;;;;;;;28.25;15.43;;;-0.50;99.90;;;;;;4972529;28;20059;-69
2023/01/23 10:24:14;;;;;;;33.92;16.65;;;-0.40;99.90;;;;;;5012499;28;20076;-68
2023/01/23 10:26:42;;;;;;;32.75;18.17;;;-0.40;99.90;;;;;;4990370;28;20486;-68
2023/01/23 10:29:33;;;;;;;45.33;20.85;;;-0.30;99.90;;;;;;5015244;28;20049;-68
2023/01/23 10:32:01;;;;;;;42.40;23.48;;;-0.20;99.90;;;;;;5006825;28;20044;-68
2023/01/23 10:35:11;;;;;;;44.47;22.67;;;-0.10;99.90;;;;;;5009179;28;20505;-69
2023/01/23 10:37:51;;;;;;;39.17;22.13;;;0.00;99.90;;;;;;4978959;28;20093;-69
2023/01/23 10:43:16;;;;;;;39.35;23.08;;;0.20;99.90;;;;;;5010227;28;20068;-70
2023/01/23 10:45:44;;;;;;;42.90;22.13;;;0.30;99.90;;;;;;5011026;28;20053;-69
2023/01/23 10:48:52;;;;;;;56.35;23.15;;;0.30;99.90;;;;;;5025950;28;20048;-69
2023/01/23 10:51:31;;;;;;;48.22;24.35;;;0.40;99.90;;;;;;5008941;28;20136;-68
2023/01/23 10:54:13;;;;;;;44.53;23.92;;;0.40;99.90;;;;;;5008757;28;20088;-68
2023/01/23 10:56:57;;;;;;;46.55;23.75;;;0.50;99.90;;;;;;5010542;28;20701;-68
2023/01/23 10:59:40;;;;;;;47.30;22.05;;;0.60;99.90;;;;;;5042913;28;20045;-68
2023/01/23 11:02:13;;;;;;;46.45;22.67;;;0.60;99.90;;;;;;5027311;28;20073;-68
2023/01/23 11:04:45;;;;;;;38.47;20.90;;;0.60;99.90;;;;;;5011881;28;20054;-68
2023/01/23 11:07:29;;;;;;;46.38;24.88;;;0.70;99.90;;;;;;5023322;28;20269;-68
2023/01/23 11:09:56;;;;;;;50.10;23.27;;;0.80;99.90;;;;;;5022520;28;20045;-69
2023/01/23 11:12:27;;;;;;;43.25;22.20;;;0.80;99.90;;;;;;5014097;28;20350;-68
2023/01/23 11:15:30;;;;;;;47.08;22.88;;;0.90;99.90;;;;;;5013768;28;20069;-69
2023/01/23 11:17:58;;;;;;;42.72;22.83;;;0.90;99.90;;;;;;4952156;29;20051;-69
2023/01/23 11:20:37;;;;;;;40.25;22.70;;;0.90;99.90;;;;;;4995647;28;20042;-68
2023/01/23 11:23:16;;;;;;;54.47;21.92;;;1.00;99.90;;;;;;5010967;28;20064;-68
2023/01/23 11:25:44;;;;;;;44.05;22.25;;;1.10;99.90;;;;;;5042145;28;20057;-69
2023/01/23 11:28:23;;;;;;;39.08;21.73;;;1.20;99.90;;;;;;5010952;28;20049;-68
2023/01/23 11:30:55;;;;;;;35.17;20.58;;;1.30;99.90;;;;;;5010928;28;20064;-67
2023/01/23 11:34:00;;;;;;;49.35;25.58;;;1.50;99.90;;;;;;5026200;28;20045;-68
2023/01/23 11:36:44;;;;;;;42.50;23.33;;;1.40;99.90;;;;;;5013862;28;20073;-69
2023/01/23 11:39:17;;;;;;;48.28;23.85;;;1.50;99.90;;;;;;5021563;28;20470;-70
2023/01/23 11:41:44;;;;;;;47.60;23.92;;;1.60;99.90;;;;;;5005954;28;20054;-69
2023/01/23 11:44:19;;;;;;;42.00;22.52;;;1.70;99.90;;;;;;5021604;28;20500;-68
2023/01/23 11:46:54;;;;;;;37.88;20.50;;;1.80;99.90;;;;;;5005138;28;20053;-69
2023/01/23 11:49:21;;;;;;;44.60;22.35;;;1.80;99.90;;;;;;4990321;28;20052;-69
2023/01/23 11:51:47;;;;;;;46.83;23.30;;;1.90;99.90;;;;;;5004436;28;20050;-69
2023/01/23 11:54:43;;;;;;;41.88;20.80;;;2.00;99.90;;;;;;5011803;28;20137;-69
2023/01/23 11:57:20;;;;;;;38.40;23.00;;;2.00;99.90;;;;;;5002250;28;20509;-70
2023/01/23 11:59:52;;;;;;;42.40;22.55;;;2.10;99.90;;;;;;5018834;28;20057;-70
2023/01/23 12:02:40;;;;;;;33.67;19.50;;;2.10;99.90;;;;;;5004887;28;20052;-70
2023/01/23 12:05:07;;;;;;;42.53;20.23;;;2.20;99.90;;;;;;5005320;28;20058;-69
2023/01/23 12:08:06;;;;;;;36.08;19.77;;;2.20;99.90;;;;;;5000229;28;20432;-70
2023/01/23 12:10:43;;;;;;;33.60;19.15;;;2.20;99.90;;;;;;4985947;28;20129;-69
2023/01/23 12:13:24;;;;;;;35.58;19.48;;;2.20;99.90;;;;;;5038925;28;20076;-69
2023/01/23 12:16:02;;;;;;;32.70;19.25;;;2.20;99.90;;;;;;5039511;28;20129;-68
2023/01/23 12:18:53;;;;;;;33.78;20.05;;;2.20;99.90;;;;;;5031998;28;20042;-68
2023/01/23 12:21:32;;;;;;;32.97;20.23;;;2.20;99.90;;;;;;5022128;28;20086;-69
2023/01/23 12:24:04;;;;;;;37.28;20.45;;;2.20;99.90;;;;;;5015385;28;20046;-69
2023/01/23 12:26:31;;;;;;;36.10;19.63;;;2.60;99.90;;;;;;4676203;28;10000632;-70
2023/01/23 12:29:17;;;;;;;38.25;20.52;;;2.40;99.90;;;;;;5037984;28;20062;-69
2023/01/23 12:32:29;;;;;;;36.22;20.02;;;2.40;99.90;;;;;;5008553;28;20590;-69
2023/01/23 12:35:28;;;;;;;36.90;19.48;;;2.50;99.90;;;;;;5001587;28;20061;-69
2023/01/23 12:38:20;;;;;;;37.25;21.23;;;2.60;99.90;;;;;;5035278;28;20046;-69
2023/01/23 12:40:51;;;;;;;38.15;21.60;;;2.60;99.90;;;;;;5024273;28;20115;-68
2023/01/23 12:43:44;;;;;;;48.53;23.35;;;2.70;99.90;;;;;;5040367;28;20068;-69
2023/01/23 12:46:15;;;;;;;44.78;23.90;;;2.80;99.90;;;;;;5008954;28;20066;-68
2023/01/23 12:48:52;;;;;;;38.20;22.42;;;2.80;99.90;;;;;;5039562;28;20053;-69
2023/01/23 12:51:21;;;;;;;49.15;24.33;;;2.80;99.90;;;;;;5022820;28;20056;-69
2023/01/23 12:53:51;;;;;;;45.58;24.55;;;2.80;99.90;;;;;;5023198;28;20133;-68
2023/01/23 12:56:32;;;;;;;44.17;23.75;;;2.90;99.90;;;;;;5008874;28;20053;-69
2023/01/23 12:59:10;;;;;;;44.38;21.92;;;2.90;99.90;;;;;;5008326;28;20098;-69